createdAt,value
2023-05-14T00:01:47.578Z,4.71
2023-05-14T00:04:17.268Z,4.67
2023-05-14T00:06:47.620Z,4.67
2023-05-14T00:09:17.096Z,4.67
2023-05-14T00:11:46.617Z,4.69
2023-05-14T00:14:16.267Z,4.71
2023-05-14T00:16:45.995Z,4.74
2023-05-14T00:19:17.438Z,4.74
2023-05-14T00:21:49.468Z,4.71
2023-05-14T00:24:18.967Z,4.69
2023-05-14T00:26:49.700Z,4.66
2023-05-14T00:29:21.568Z,4.64
2023-05-14T00:31:53.302Z,4.61
2023-05-14T00:34:24.149Z,4.56
2023-05-14T00:36:55.480Z,4.50
2023-05-14T00:39:26.192Z,4.45
2023-05-14T00:41:58.033Z,4.40
2023-05-14T00:44:29.548Z,4.35
2023-05-14T00:47:00.939Z,4.30
2023-05-14T00:49:32.283Z,4.26
2023-05-14T00:52:03.162Z,4.25
2023-05-14T00:54:35.163Z,4.24
2023-05-14T00:57:06.043Z,4.23
2023-05-14T00:59:36.308Z,4.23
2023-05-14T01:02:07.354Z,4.22
2023-05-14T01:04:39.280Z,4.20
2023-05-14T01:07:22.139Z,4.17
2023-05-14T01:10:10.493Z,4.16
2023-05-14T01:12:58.990Z,4.17
2023-05-14T01:15:34.711Z,4.13
2023-05-14T01:18:05.985Z,4.13
2023-05-14T01:20:37.837Z,4.11
2023-05-14T01:23:07.730Z,4.11
2023-05-14T01:25:37.806Z,4.08
2023-05-14T01:28:22.210Z,4.06
2023-05-14T01:30:54.622Z,4.03
2023-05-14T01:33:30.601Z,4.06
2023-05-14T01:36:02.292Z,4.09
2023-05-14T01:38:35.696Z,4.10
2023-05-14T01:41:08.007Z,4.10
2023-05-14T01:43:41.872Z,4.02
2023-05-14T01:46:18.725Z,3.94
2023-05-14T01:48:49.435Z,3.89
2023-05-14T01:51:19.804Z,3.86
2023-05-14T01:53:51.093Z,3.84
2023-05-14T01:56:26.467Z,3.82
2023-05-14T01:58:57.946Z,3.80
2023-05-14T02:01:27.628Z,3.80
2023-05-14T02:03:58.822Z,3.79
2023-05-14T02:06:31.062Z,3.78
2023-05-14T02:09:01.167Z,3.76
2023-05-14T02:11:31.659Z,3.75
2023-05-14T02:14:03.272Z,3.72
2023-05-14T02:16:33.160Z,3.71
2023-05-14T02:19:03.933Z,3.69
2023-05-14T02:21:33.682Z,3.68
2023-05-14T02:24:04.421Z,3.67
2023-05-14T02:26:33.503Z,3.66
2023-05-14T02:29:03.940Z,3.63
2023-05-14T02:31:37.222Z,3.60
2023-05-14T02:34:07.712Z,3.57
2023-05-14T02:36:37.769Z,3.54
2023-05-14T02:39:07.587Z,3.51
2023-05-14T02:41:37.572Z,3.48
2023-05-14T02:44:08.527Z,3.46
2023-05-14T02:46:39.638Z,3.44
2023-05-14T02:49:10.430Z,3.43
2023-05-14T02:51:41.161Z,3.43
2023-05-14T02:54:10.557Z,3.43
2023-05-14T02:56:40.494Z,3.44
2023-05-14T02:59:09.971Z,3.43
2023-05-14T03:01:40.629Z,3.43
2023-05-14T03:04:12.097Z,3.43
2023-05-14T03:06:44.869Z,3.44
2023-05-14T03:09:16.479Z,3.44
2023-05-14T03:11:46.992Z,3.45
2023-05-14T03:14:15.999Z,3.50
2023-05-14T03:16:45.952Z,3.56
2023-05-14T03:19:15.526Z,3.62
2023-05-14T03:21:46.552Z,3.63
2023-05-14T03:24:16.570Z,3.65
2023-05-14T03:26:46.504Z,3.69
2023-05-14T03:29:18.726Z,3.73
2023-05-14T03:31:48.543Z,3.79
2023-05-14T03:34:18.267Z,3.85
2023-05-14T03:36:48.824Z,3.92
2023-05-14T03:39:22.415Z,4.00
2023-05-14T03:41:53.136Z,4.08
2023-05-14T03:44:23.126Z,4.16
2023-05-14T03:46:53.609Z,4.23
2023-05-14T03:49:22.818Z,4.26
2023-05-14T03:51:53.003Z,4.26
2023-05-14T03:54:22.443Z,4.33
2023-05-14T03:56:51.841Z,4.39
2023-05-14T03:59:22.050Z,4.45
2023-05-14T04:01:51.466Z,4.54
2023-05-14T04:04:22.102Z,4.64
2023-05-14T04:06:51.255Z,4.75
2023-05-14T04:09:20.763Z,4.87
2023-05-14T04:11:50.282Z,5.02
2023-05-14T04:14:19.673Z,5.21
2023-05-14T04:16:48.610Z,5.43
2023-05-14T04:19:18.789Z,5.65
2023-05-14T04:21:47.798Z,5.89
2023-05-14T04:24:17.690Z,6.10
2023-05-14T04:26:46.951Z,6.24
2023-05-14T04:29:15.778Z,6.32
2023-05-14T04:31:44.913Z,6.44
2023-05-14T04:34:14.017Z,6.49
2023-05-14T04:36:42.987Z,6.52
2023-05-14T04:39:12.903Z,6.60
2023-05-14T04:41:42.993Z,6.66
2023-05-14T04:44:13.310Z,6.71
2023-05-14T04:46:42.011Z,6.81
2023-05-14T04:49:12.963Z,6.92
2023-05-14T04:51:42.445Z,7.03
2023-05-14T04:54:12.220Z,7.20
2023-05-14T04:56:41.552Z,7.36
2023-05-14T04:59:10.653Z,7.56
2023-05-14T05:01:39.465Z,7.80
2023-05-14T05:04:08.220Z,8.12
2023-05-14T05:06:38.357Z,8.49
2023-05-14T05:09:07.454Z,8.88
2023-05-14T05:11:36.449Z,9.47
2023-05-14T05:14:05.201Z,10.06
2023-05-14T05:16:34.808Z,10.42
2023-05-14T05:19:04.004Z,10.79
2023-05-14T05:21:32.825Z,10.91
2023-05-14T05:24:01.596Z,11.25
2023-05-14T05:26:30.607Z,11.62
2023-05-14T05:28:59.804Z,11.86
2023-05-14T05:31:28.403Z,12.22
2023-05-14T05:33:57.476Z,12.41
2023-05-14T05:36:26.477Z,12.65
2023-05-14T05:38:55.601Z,12.86
2023-05-14T05:41:24.346Z,12.90
2023-05-14T05:43:53.127Z,13.03
2023-05-14T05:46:21.846Z,13.41
2023-05-14T05:48:50.905Z,13.66
2023-05-14T05:51:19.487Z,13.84
2023-05-14T05:53:48.586Z,14.02
2023-05-14T05:56:17.176Z,14.58
2023-05-14T05:58:45.652Z,15.15
2023-05-14T06:01:14.355Z,15.78
2023-05-14T06:03:43.120Z,16.33
2023-05-14T06:06:11.609Z,16.70
2023-05-14T06:08:40.185Z,17.07
2023-05-14T06:11:08.666Z,17.34
2023-05-14T06:13:37.145Z,17.58
2023-05-14T06:16:05.883Z,17.67
2023-05-14T06:18:34.365Z,17.96
2023-05-14T06:21:03.206Z,18.11
2023-05-14T06:23:31.693Z,18.26
2023-05-14T06:26:00.284Z,18.31
2023-05-14T06:28:28.722Z,18.53
2023-05-14T06:30:57.433Z,18.83
2023-05-14T06:33:31.254Z,19.04
2023-05-14T06:36:05.260Z,19.26
2023-05-14T06:38:33.937Z,19.40
2023-05-14T06:41:02.666Z,19.26
2023-05-14T06:43:31.406Z,19.14
2023-05-14T06:46:00.611Z,19.06
2023-05-14T06:48:31.204Z,18.94
2023-05-14T06:51:00.401Z,18.85
2023-05-14T06:53:29.667Z,18.78
2023-05-14T06:55:59.988Z,19.02
2023-05-14T06:58:29.061Z,19.26
2023-05-14T07:00:58.707Z,19.38
2023-05-14T07:03:27.604Z,19.18
2023-05-14T07:05:56.136Z,19.21
2023-05-14T07:08:24.820Z,19.47
2023-05-14T07:10:54.217Z,19.78
2023-05-14T07:13:23.274Z,20.03
2023-05-14T07:15:51.696Z,20.05
2023-05-14T07:18:20.294Z,20.18
2023-05-14T07:20:49.266Z,20.27
2023-05-14T07:23:19.748Z,20.39
2023-05-14T07:25:48.478Z,20.46
2023-05-14T07:28:17.379Z,20.55
2023-05-14T07:30:45.860Z,20.71
2023-05-14T07:33:14.642Z,20.85
2023-05-14T07:35:43.325Z,20.86
2023-05-14T07:38:12.014Z,20.74
2023-05-14T07:40:40.601Z,20.57
2023-05-14T07:43:10.916Z,20.87
2023-05-14T07:45:39.708Z,21.12
2023-05-14T07:48:08.784Z,21.30
2023-05-14T07:50:37.909Z,21.54
2023-05-14T07:53:06.487Z,21.69
2023-05-14T07:55:35.403Z,21.78
2023-05-14T07:58:03.959Z,22.03
2023-05-14T08:00:34.281Z,22.18
2023-05-14T08:03:03.191Z,22.41
2023-05-14T08:05:33.283Z,22.33
2023-05-14T08:08:01.871Z,22.35
2023-05-14T08:10:33.462Z,22.43
2023-05-14T08:13:02.313Z,22.26
2023-05-14T08:15:31.117Z,22.05
2023-05-14T08:18:04.527Z,21.93
2023-05-14T08:20:33.196Z,21.67
2023-05-14T08:23:01.886Z,21.52
2023-05-14T08:25:31.079Z,21.59
2023-05-14T08:28:00.481Z,21.45
2023-05-14T08:30:29.260Z,21.40
2023-05-14T08:32:58.700Z,21.41
2023-05-14T08:35:27.247Z,21.52
2023-05-14T08:37:57.417Z,21.69
2023-05-14T08:40:26.888Z,21.80
2023-05-14T08:42:57.165Z,21.87
2023-05-14T08:45:29.477Z,21.90
2023-05-14T08:47:59.179Z,22.07
2023-05-14T08:50:30.596Z,22.35
2023-05-14T08:52:59.544Z,22.55
2023-05-14T08:55:28.610Z,22.72
2023-05-14T08:57:58.317Z,22.88
2023-05-14T09:00:27.361Z,22.89
2023-05-14T09:02:56.417Z,22.94
2023-05-14T09:05:25.194Z,23.04
2023-05-14T09:07:53.875Z,22.95
2023-05-14T09:10:23.324Z,22.85
2023-05-14T09:12:52.172Z,22.95
2023-05-14T09:15:21.167Z,23.33
2023-05-14T09:17:49.831Z,23.47
2023-05-14T09:20:19.791Z,23.29
2023-05-14T09:22:53.178Z,23.42
2023-05-14T09:25:27.173Z,23.51
2023-05-14T09:27:59.105Z,23.73
2023-05-14T09:30:27.921Z,24.14
2023-05-14T09:32:56.547Z,24.28
2023-05-14T09:35:25.413Z,24.19
2023-05-14T09:37:54.928Z,24.25
2023-05-14T09:40:24.643Z,24.00
2023-05-14T09:42:55.249Z,23.43
2023-05-14T09:45:24.536Z,23.16
2023-05-14T09:47:53.829Z,23.14
2023-05-14T09:50:22.681Z,23.15
2023-05-14T09:52:51.924Z,23.22
2023-05-14T09:55:21.139Z,23.31
2023-05-14T09:57:50.327Z,23.38
2023-05-14T10:00:19.628Z,23.24
2023-05-14T10:02:51.602Z,23.29
2023-05-14T10:05:21.654Z,23.21
2023-05-14T10:07:52.147Z,22.99
2023-05-14T10:10:21.646Z,22.68
2023-05-14T10:12:57.594Z,22.76
2023-05-14T10:15:34.053Z,23.07
2023-05-14T10:18:04.628Z,23.22
2023-05-14T10:20:33.378Z,23.26
2023-05-14T10:23:02.167Z,23.34
2023-05-14T10:25:31.049Z,23.41
2023-05-14T10:27:59.855Z,23.49
2023-05-14T10:30:28.619Z,23.58
2023-05-14T10:33:07.769Z,23.78
2023-05-14T10:35:54.876Z,23.91
2023-05-14T10:38:27.563Z,23.78
2023-05-14T10:41:06.484Z,23.54
2023-05-14T10:43:39.158Z,23.25
2023-05-14T10:46:08.771Z,23.45
2023-05-14T10:48:38.155Z,23.58
2023-05-14T10:51:08.039Z,23.86
2023-05-14T10:53:40.971Z,23.81
2023-05-14T10:56:11.335Z,23.81
2023-05-14T10:58:41.615Z,23.86
2023-05-14T11:01:11.156Z,23.97
2023-05-14T11:03:44.298Z,24.05
2023-05-14T11:06:15.527Z,24.29
2023-05-14T11:08:44.964Z,24.63
2023-05-14T11:11:13.871Z,24.93
2023-05-14T11:13:43.174Z,25.08
2023-05-14T11:16:22.602Z,25.01
2023-05-14T11:19:03.782Z,24.77
2023-05-14T11:21:35.295Z,24.73
2023-05-14T11:24:05.666Z,25.03
2023-05-14T11:26:34.625Z,25.29
2023-05-14T11:29:03.636Z,25.67
2023-05-14T11:31:32.159Z,25.96
2023-05-14T11:34:01.315Z,26.12
2023-05-14T11:36:29.800Z,26.13
2023-05-14T11:38:58.271Z,25.87
2023-05-14T11:41:28.431Z,25.66
2023-05-14T11:43:57.376Z,25.99
2023-05-14T11:46:26.614Z,25.95
2023-05-14T11:48:55.068Z,25.48
2023-05-14T11:51:24.976Z,25.33
2023-05-14T11:53:54.581Z,24.87
2023-05-14T11:56:22.953Z,24.60
2023-05-14T11:58:56.153Z,24.59
2023-05-14T12:01:25.145Z,24.56
2023-05-14T12:03:53.902Z,24.38
2023-05-14T12:06:30.915Z,24.12
2023-05-14T12:09:01.805Z,23.38
2023-05-14T12:11:33.912Z,23.01
2023-05-14T12:14:02.514Z,22.71
2023-05-14T12:16:35.544Z,22.46
2023-05-14T12:19:06.372Z,22.25
2023-05-14T12:21:35.413Z,22.08
2023-05-14T12:24:05.520Z,21.87
2023-05-14T12:26:34.425Z,21.69
2023-05-14T12:29:04.655Z,21.56
2023-05-14T12:31:33.905Z,21.39
2023-05-14T12:34:03.039Z,21.24
2023-05-14T12:36:33.156Z,21.14
2023-05-14T12:39:03.816Z,21.04
2023-05-14T12:41:32.993Z,21.00
2023-05-14T12:44:03.112Z,20.87
2023-05-14T12:46:31.961Z,20.79
2023-05-14T12:49:00.590Z,20.77
2023-05-14T12:51:29.170Z,20.72
2023-05-14T12:53:57.638Z,20.73
2023-05-14T12:56:28.703Z,20.72
2023-05-14T12:58:57.366Z,20.72
2023-05-14T13:01:25.775Z,20.74
2023-05-14T13:03:55.919Z,20.78
2023-05-14T13:06:24.556Z,20.85
2023-05-14T13:08:53.349Z,20.87
2023-05-14T13:11:23.159Z,20.91
2023-05-14T13:13:51.945Z,20.96
2023-05-14T13:16:20.354Z,20.96
2023-05-14T13:18:49.036Z,21.00
2023-05-14T13:21:17.585Z,20.91
2023-05-14T13:23:46.383Z,20.92
2023-05-14T13:26:15.375Z,20.87
2023-05-14T13:28:44.061Z,20.89
2023-05-14T13:31:13.618Z,20.87
2023-05-14T13:33:43.206Z,20.74
2023-05-14T13:36:13.707Z,20.63
2023-05-14T13:38:42.753Z,20.49
2023-05-14T13:41:12.498Z,20.30
2023-05-14T13:43:41.184Z,19.93
2023-05-14T13:46:09.685Z,19.77
2023-05-14T13:48:38.250Z,19.69
2023-05-14T13:51:06.934Z,19.58
2023-05-14T13:53:35.727Z,19.18
2023-05-14T13:56:06.961Z,19.04
2023-05-14T13:58:35.765Z,19.06
2023-05-14T14:01:04.951Z,18.95
2023-05-14T14:03:33.637Z,19.09
2023-05-14T14:06:02.136Z,19.05
2023-05-14T14:08:31.529Z,19.00
2023-05-14T14:11:01.143Z,18.79
2023-05-14T14:13:29.931Z,18.65
2023-05-14T14:15:58.544Z,18.53
2023-05-14T14:18:27.199Z,18.33
2023-05-14T14:20:56.998Z,18.10
2023-05-14T14:23:25.796Z,18.22
2023-05-14T14:25:54.685Z,18.37
2023-05-14T14:28:23.388Z,18.61
2023-05-14T14:30:51.844Z,18.80
2023-05-14T14:33:20.238Z,18.84
2023-05-14T14:35:48.860Z,18.73
2023-05-14T14:38:17.900Z,18.93
2023-05-14T14:40:47.035Z,19.04
2023-05-14T14:43:15.788Z,19.25
2023-05-14T14:45:48.244Z,19.40
2023-05-14T14:48:32.094Z,19.55
2023-05-14T14:51:03.552Z,19.67
2023-05-14T14:53:33.499Z,19.72
2023-05-14T14:56:02.157Z,19.76
2023-05-14T14:58:31.550Z,19.77
2023-05-14T15:01:01.746Z,19.81
2023-05-14T15:03:30.480Z,19.82
2023-05-14T15:05:59.565Z,19.68
2023-05-14T15:08:28.346Z,19.67
2023-05-14T15:10:56.853Z,19.68
2023-05-14T15:13:26.022Z,19.64
2023-05-14T15:15:56.150Z,19.63
2023-05-14T15:18:24.527Z,19.49
2023-05-14T15:20:53.315Z,19.42
2023-05-14T15:23:23.027Z,19.31
2023-05-14T15:25:51.915Z,19.21
2023-05-14T15:28:21.013Z,19.14
2023-05-14T15:30:49.697Z,19.02
2023-05-14T15:33:19.842Z,18.93
2023-05-14T15:35:48.410Z,18.87
2023-05-14T15:38:16.989Z,18.76
2023-05-14T15:40:45.611Z,18.72
2023-05-14T15:43:15.016Z,18.72
2023-05-14T15:45:45.085Z,18.68
2023-05-14T15:48:13.898Z,18.62
2023-05-14T15:50:42.659Z,18.57
2023-05-14T15:53:11.042Z,18.52
2023-05-14T15:55:39.920Z,18.47
2023-05-14T15:58:08.608Z,18.39
2023-05-14T16:00:37.189Z,18.32
2023-05-14T16:03:06.761Z,18.27
2023-05-14T16:05:36.832Z,18.19
2023-05-14T16:08:05.708Z,18.13
2023-05-14T16:10:34.500Z,18.10
2023-05-14T16:13:03.007Z,18.08
2023-05-14T16:15:31.766Z,18.10
2023-05-14T16:18:00.678Z,18.10
2023-05-14T16:20:29.236Z,18.13
2023-05-14T16:22:58.265Z,18.15
2023-05-14T16:25:26.704Z,18.14
2023-05-14T16:27:55.708Z,18.14
2023-05-14T16:30:24.415Z,18.14
2023-05-14T16:32:53.299Z,18.09
2023-05-14T16:35:22.375Z,18.04
2023-05-14T16:37:51.174Z,17.98
2023-05-14T16:40:20.125Z,17.92
2023-05-14T16:42:49.431Z,17.84
2023-05-14T16:45:19.361Z,17.76
2023-05-14T16:47:47.998Z,17.70
2023-05-14T16:50:16.840Z,17.66
2023-05-14T16:52:45.535Z,17.62
2023-05-14T16:55:14.101Z,17.59
2023-05-14T16:57:44.115Z,17.55
2023-05-14T17:00:12.887Z,17.51
2023-05-14T17:02:42.036Z,17.46
2023-05-14T17:05:10.790Z,17.40
2023-05-14T17:07:40.017Z,17.34
2023-05-14T17:10:08.789Z,17.27
2023-05-14T17:12:37.461Z,17.22
2023-05-14T17:15:06.854Z,17.16
2023-05-14T17:17:35.409Z,17.08
2023-05-14T17:20:06.035Z,17.03
2023-05-14T17:22:34.860Z,16.97
2023-05-14T17:25:03.748Z,16.92
2023-05-14T17:27:33.661Z,16.87
2023-05-14T17:30:02.663Z,16.85
2023-05-14T17:32:31.593Z,16.82
2023-05-14T17:35:00.349Z,16.76
2023-05-14T17:37:29.126Z,16.74
2023-05-14T17:39:57.805Z,16.71
2023-05-14T17:42:26.498Z,16.68
2023-05-14T17:44:55.163Z,16.67
2023-05-14T17:47:23.861Z,16.63
2023-05-14T17:49:52.249Z,16.59
2023-05-14T17:52:21.039Z,16.58
2023-05-14T17:54:49.631Z,16.54
2023-05-14T17:57:18.213Z,16.52
2023-05-14T17:59:46.802Z,16.48
2023-05-14T18:02:15.373Z,16.47
2023-05-14T18:04:43.965Z,16.43
2023-05-14T18:07:12.856Z,16.40
2023-05-14T18:09:41.577Z,16.35
2023-05-14T18:12:10.222Z,16.31
2023-05-14T18:14:38.721Z,16.25
2023-05-14T18:17:07.474Z,16.19
2023-05-14T18:19:37.310Z,16.13
2023-05-14T18:22:05.790Z,16.08
2023-05-14T18:24:34.378Z,16.03
2023-05-14T18:27:03.074Z,15.98
2023-05-14T18:29:31.449Z,15.94
2023-05-14T18:31:59.836Z,15.89
2023-05-14T18:34:28.409Z,15.84
2023-05-14T18:36:57.907Z,15.80
2023-05-14T18:39:26.389Z,15.75
2023-05-14T18:41:56.807Z,15.75
2023-05-14T18:44:25.498Z,15.76
2023-05-14T18:46:54.902Z,15.74
2023-05-14T18:49:23.276Z,15.73
2023-05-14T18:51:52.062Z,15.72
2023-05-14T18:54:20.442Z,15.68
2023-05-14T18:56:49.127Z,15.67
2023-05-14T18:59:17.708Z,15.67
2023-05-14T19:01:46.036Z,15.67
2023-05-14T19:04:14.768Z,15.66
2023-05-14T19:06:43.358Z,15.67
2023-05-14T19:09:11.842Z,15.67
2023-05-14T19:11:40.209Z,15.67
2023-05-14T19:14:09.611Z,15.66
2023-05-14T19:16:38.103Z,15.65
2023-05-14T19:19:06.813Z,15.63
2023-05-14T19:21:35.328Z,15.60
2023-05-14T19:24:04.049Z,15.59
2023-05-14T19:26:32.744Z,15.57
2023-05-14T19:29:01.116Z,15.54
2023-05-14T19:31:29.740Z,15.53
2023-05-14T19:33:58.495Z,15.50
2023-05-14T19:36:26.887Z,15.46
2023-05-14T19:38:55.343Z,15.40
2023-05-14T19:41:23.822Z,15.34
2023-05-14T19:43:52.304Z,15.29
2023-05-14T19:46:21.257Z,15.24
2023-05-14T19:48:49.980Z,15.18
2023-05-14T19:51:18.577Z,15.12
2023-05-14T19:53:47.148Z,15.06
2023-05-14T19:56:16.352Z,15.00
2023-05-14T19:58:45.134Z,14.94
2023-05-14T20:01:14.805Z,14.88
2023-05-14T20:03:43.736Z,14.83
2023-05-14T20:06:12.621Z,14.77
2023-05-14T20:08:41.414Z,14.71
2023-05-14T20:11:10.109Z,14.67
2023-05-14T20:13:38.699Z,14.60
2023-05-14T20:16:07.279Z,14.53
2023-05-14T20:18:36.597Z,14.48
2023-05-14T20:21:07.197Z,14.41
2023-05-14T20:23:35.677Z,14.35
2023-05-14T20:26:04.482Z,14.31
2023-05-14T20:28:32.918Z,14.24
2023-05-14T20:31:04.293Z,14.19
2023-05-14T20:33:32.902Z,14.15
2023-05-14T20:36:04.839Z,14.12
2023-05-14T20:38:35.267Z,14.11
2023-05-14T20:41:03.755Z,14.08
2023-05-14T20:43:32.759Z,14.04
2023-05-14T20:46:01.571Z,14.00
2023-05-14T20:48:30.629Z,13.96
2023-05-14T20:50:59.513Z,13.92
2023-05-14T20:53:29.335Z,13.90
2023-05-14T20:55:59.647Z,13.87
2023-05-14T20:58:28.363Z,13.83
2023-05-14T21:00:58.002Z,13.77
2023-05-14T21:03:28.013Z,13.72
2023-05-14T21:05:57.384Z,13.69
2023-05-14T21:08:26.382Z,13.65
2023-05-14T21:13:24.245Z,13.57
2023-05-14T21:15:52.860Z,13.52
2023-05-14T21:18:21.406Z,13.52
2023-05-14T21:20:49.987Z,13.56
2023-05-14T21:23:20.219Z,13.58
2023-05-14T21:25:48.801Z,13.63
2023-05-14T21:28:17.301Z,13.67
2023-05-14T21:30:47.108Z,13.71
2023-05-14T21:33:16.489Z,13.76
2023-05-14T21:35:45.284Z,13.77
2023-05-14T21:38:14.376Z,13.78
2023-05-14T21:40:43.475Z,13.78
2023-05-14T21:43:13.187Z,13.78
2023-05-14T21:45:44.122Z,13.77
2023-05-14T21:48:14.332Z,13.75
2023-05-14T21:50:43.358Z,13.72
2023-05-14T21:53:12.120Z,13.68
2023-05-14T21:55:42.154Z,13.64
2023-05-14T21:58:12.879Z,13.58
2023-05-14T22:00:42.201Z,13.52
2023-05-14T22:03:12.741Z,13.46
2023-05-14T22:05:42.749Z,13.41
2023-05-14T22:08:11.816Z,13.37
2023-05-14T22:10:40.604Z,13.36
2023-05-14T22:13:10.424Z,13.36
2023-05-14T22:15:39.552Z,13.36
2023-05-14T22:18:08.429Z,13.37
2023-05-14T22:20:37.095Z,13.38
2023-05-14T22:23:06.176Z,13.40
2023-05-14T22:25:36.322Z,13.42
2023-05-14T22:28:06.115Z,13.43
2023-05-14T22:30:34.933Z,13.43
2023-05-14T22:33:05.079Z,13.40
2023-05-14T22:35:34.906Z,13.41
2023-05-14T22:38:05.272Z,13.41
2023-05-14T22:40:34.372Z,13.40
2023-05-14T22:43:03.149Z,13.39
2023-05-14T22:45:32.871Z,13.39
2023-05-14T22:48:02.709Z,13.37
2023-05-14T22:50:32.817Z,13.37
2023-05-14T22:53:02.294Z,13.37
2023-05-14T22:55:32.203Z,13.35
2023-05-14T22:58:00.989Z,13.33
2023-05-14T23:00:30.720Z,13.32
2023-05-14T23:03:00.337Z,13.30
2023-05-14T23:05:29.719Z,13.29
2023-05-14T23:07:59.307Z,13.29
2023-05-14T23:10:28.403Z,13.27
2023-05-14T23:12:57.301Z,13.23
2023-05-14T23:15:27.219Z,13.18
2023-05-14T23:17:58.924Z,13.13
2023-05-14T23:20:29.323Z,13.09
2023-05-14T23:22:59.693Z,13.07
2023-05-14T23:25:29.797Z,13.08
2023-05-14T23:28:02.072Z,13.07
2023-05-14T23:30:32.264Z,13.08
2023-05-14T23:33:03.116Z,13.12
2023-05-14T23:35:32.399Z,13.13
2023-05-14T23:38:03.823Z,13.12
2023-05-14T23:40:34.349Z,13.08
2023-05-14T23:43:04.364Z,13.03
2023-05-14T23:45:34.498Z,12.98
2023-05-14T23:48:04.127Z,12.93
2023-05-14T23:50:34.241Z,12.87
2023-05-14T23:53:03.728Z,12.81
2023-05-14T23:55:34.047Z,12.74
2023-05-14T23:58:04.346Z,12.69
